createdAt,value
2022-11-16T00:00:23.143Z,89.74
2022-11-16T00:03:05.975Z,89.84
2022-11-16T00:05:37.372Z,89.83
2022-11-16T00:08:08.619Z,90.06
2022-11-16T00:10:37.957Z,90.00
2022-11-16T00:13:09.674Z,90.03
2022-11-16T00:15:40.663Z,89.96
2022-11-16T00:18:11.556Z,90.01
2022-11-16T00:20:42.777Z,89.88
2022-11-16T00:23:14.110Z,90.01
2022-11-16T00:25:45.596Z,89.97
2022-11-16T00:28:17.227Z,89.94
2022-11-16T00:30:48.461Z,89.87
2022-11-16T00:33:19.544Z,89.84
2022-11-16T00:35:51.210Z,89.82
2022-11-16T00:38:22.218Z,89.86
2022-11-16T00:40:53.325Z,89.86
2022-11-16T00:43:24.658Z,89.77
2022-11-16T00:45:55.848Z,89.86
2022-11-16T00:48:25.472Z,89.74
2022-11-16T00:50:56.703Z,89.79
2022-11-16T00:53:27.922Z,89.82
2022-11-16T00:55:57.376Z,89.87
2022-11-16T00:58:28.483Z,89.83
2022-11-16T01:01:04.259Z,89.91
2022-11-16T01:03:35.718Z,89.81
2022-11-16T01:06:05.817Z,89.85
2022-11-16T01:08:38.445Z,89.76
2022-11-16T01:11:28.602Z,89.77
2022-11-16T01:14:00.422Z,89.74
2022-11-16T01:16:31.710Z,89.73
2022-11-16T01:19:03.580Z,89.82
2022-11-16T01:21:34.771Z,89.88
2022-11-16T01:24:06.344Z,89.78
2022-11-16T01:26:37.323Z,89.92
2022-11-16T01:29:08.209Z,89.89
2022-11-16T01:31:39.485Z,89.88
2022-11-16T01:34:10.937Z,89.87
2022-11-16T01:36:42.073Z,89.85
2022-11-16T01:39:14.384Z,89.91
2022-11-16T01:41:46.609Z,89.88
2022-11-16T01:44:52.062Z,89.87
2022-11-16T01:47:23.404Z,89.98
2022-11-16T01:49:57.359Z,89.89
2022-11-16T01:52:32.134Z,89.83
2022-11-16T01:55:04.002Z,89.86
2022-11-16T01:57:38.619Z,89.86
2022-11-16T02:00:12.893Z,89.94
2022-11-16T02:02:44.627Z,89.88
2022-11-16T02:05:19.026Z,89.92
2022-11-16T02:08:28.838Z,89.97
2022-11-16T02:11:17.242Z,89.95
2022-11-16T02:14:01.650Z,90.01
2022-11-16T02:16:41.632Z,89.92
2022-11-16T02:19:51.310Z,89.93
2022-11-16T02:22:40.679Z,89.90
2022-11-16T02:25:18.966Z,89.90
2022-11-16T02:28:13.176Z,89.93
2022-11-16T02:30:48.931Z,89.91
2022-11-16T02:33:24.140Z,89.81
2022-11-16T02:35:58.447Z,89.72
2022-11-16T02:38:33.235Z,89.78
2022-11-16T02:41:09.827Z,89.82
2022-11-16T02:43:44.503Z,89.85
2022-11-16T02:46:21.426Z,89.91
2022-11-16T02:48:58.414Z,89.78
2022-11-16T02:51:31.410Z,89.71
2022-11-16T02:54:11.653Z,89.70
2022-11-16T02:57:13.562Z,89.73
2022-11-16T02:59:48.102Z,89.71
2022-11-16T03:02:25.694Z,89.72
2022-11-16T03:05:02.554Z,89.72
2022-11-16T03:07:41.899Z,89.65
2022-11-16T03:10:34.883Z,89.61
2022-11-16T03:13:11.694Z,89.77
2022-11-16T03:15:45.331Z,89.79
2022-11-16T03:18:18.615Z,89.84
2022-11-16T03:20:53.875Z,89.80
2022-11-16T03:23:25.232Z,89.88
2022-11-16T03:25:59.351Z,89.92
2022-11-16T03:28:36.299Z,89.88
2022-11-16T03:31:14.438Z,89.92
2022-11-16T03:33:49.651Z,89.91
2022-11-16T03:36:28.759Z,89.99
2022-11-16T03:39:02.561Z,90.08
2022-11-16T03:41:35.291Z,90.02
2022-11-16T03:44:08.862Z,90.04
2022-11-16T03:46:40.329Z,90.22
2022-11-16T03:49:11.240Z,90.18
2022-11-16T03:51:42.344Z,90.14
2022-11-16T03:54:13.611Z,90.16
2022-11-16T03:56:44.520Z,90.12
2022-11-16T03:59:15.999Z,90.09
2022-11-16T04:01:47.253Z,90.07
2022-11-16T04:04:32.005Z,90.07
2022-11-16T04:07:20.153Z,90.07
2022-11-16T04:10:08.466Z,90.08
2022-11-16T04:12:57.674Z,90.04
2022-11-16T04:15:46.581Z,90.06
2022-11-16T04:18:35.171Z,90.05
2022-11-16T04:21:24.646Z,90.00
2022-11-16T04:24:14.177Z,90.05
2022-11-16T04:27:06.584Z,89.89
2022-11-16T04:29:38.683Z,89.81
2022-11-16T04:32:28.368Z,89.90
2022-11-16T04:35:17.045Z,89.94
2022-11-16T04:37:52.517Z,89.99
2022-11-16T04:40:25.535Z,90.01
2022-11-16T04:42:57.794Z,90.01
2022-11-16T04:45:47.333Z,90.03
2022-11-16T04:48:20.601Z,89.92
2022-11-16T04:50:51.541Z,89.88
2022-11-16T04:53:27.007Z,89.89
2022-11-16T04:56:00.675Z,89.84
2022-11-16T04:58:32.154Z,89.75
2022-11-16T05:01:04.102Z,89.67
2022-11-16T05:03:35.411Z,89.73
2022-11-16T05:06:10.182Z,89.71
2022-11-16T05:08:41.189Z,89.65
2022-11-16T05:11:12.146Z,89.71
2022-11-16T05:13:42.977Z,89.75
2022-11-16T05:16:13.790Z,89.72
2022-11-16T05:18:44.774Z,89.71
2022-11-16T05:21:14.275Z,89.82
2022-11-16T05:24:02.586Z,89.73
2022-11-16T05:26:33.918Z,89.73
2022-11-16T05:29:03.426Z,89.89
2022-11-16T05:31:40.208Z,89.87
2022-11-16T05:34:12.348Z,89.77
2022-11-16T05:36:43.287Z,89.76
2022-11-16T05:39:15.123Z,89.85
2022-11-16T05:41:46.320Z,89.83
2022-11-16T05:44:18.453Z,89.82
2022-11-16T05:46:49.798Z,89.79
2022-11-16T05:49:19.101Z,89.80
2022-11-16T05:51:50.499Z,89.71
2022-11-16T05:54:24.770Z,89.73
2022-11-16T05:56:56.238Z,89.80
2022-11-16T05:59:27.811Z,89.75
2022-11-16T06:01:58.974Z,89.74
2022-11-16T06:04:30.458Z,89.78
2022-11-16T06:07:01.728Z,89.68
2022-11-16T06:09:33.052Z,89.70
2022-11-16T06:12:04.607Z,89.63
2022-11-16T06:14:35.962Z,89.48
2022-11-16T06:17:07.207Z,89.28
2022-11-16T06:19:38.705Z,89.15
2022-11-16T06:22:09.791Z,89.13
2022-11-16T06:24:41.314Z,89.26
2022-11-16T06:27:12.396Z,89.06
2022-11-16T06:29:43.332Z,89.08
2022-11-16T06:32:14.743Z,88.98
2022-11-16T06:34:45.602Z,89.06
2022-11-16T06:37:16.579Z,89.21
2022-11-16T06:39:46.104Z,89.13
2022-11-16T06:42:16.980Z,89.24
2022-11-16T06:44:46.464Z,89.27
2022-11-16T06:47:17.824Z,89.33
2022-11-16T06:49:48.698Z,89.36
2022-11-16T06:52:19.741Z,89.36
2022-11-16T06:54:50.687Z,89.33
2022-11-16T06:57:21.744Z,89.38
2022-11-16T06:59:52.644Z,89.42
2022-11-16T07:02:23.867Z,89.28
2022-11-16T07:04:58.064Z,89.29
2022-11-16T07:07:33.732Z,89.24
2022-11-16T07:10:05.423Z,89.39
2022-11-16T07:12:36.495Z,89.34
2022-11-16T07:15:10.040Z,89.38
2022-11-16T07:17:42.617Z,89.28
2022-11-16T07:20:13.742Z,89.40
2022-11-16T07:22:47.106Z,89.47
2022-11-16T07:25:18.143Z,89.49
2022-11-16T07:27:47.584Z,89.38
2022-11-16T07:30:19.705Z,89.51
2022-11-16T07:32:50.691Z,89.37
2022-11-16T07:35:20.373Z,89.41
2022-11-16T07:37:51.226Z,89.43
2022-11-16T07:40:22.336Z,89.43
2022-11-16T07:42:54.526Z,89.03
2022-11-16T07:45:25.954Z,88.75
2022-11-16T07:47:57.745Z,88.82
2022-11-16T07:50:28.862Z,88.82
2022-11-16T07:53:00.023Z,88.79
2022-11-16T07:55:32.019Z,88.62
2022-11-16T07:58:03.505Z,88.51
2022-11-16T08:00:34.330Z,88.45
2022-11-16T08:03:06.679Z,88.40
2022-11-16T08:05:37.567Z,88.13
2022-11-16T08:08:09.179Z,88.18
2022-11-16T08:10:40.455Z,88.05
2022-11-16T08:13:11.512Z,87.93
2022-11-16T08:15:42.332Z,87.92
2022-11-16T08:18:11.750Z,87.91
2022-11-16T08:20:42.643Z,88.11
2022-11-16T08:23:13.885Z,87.99
2022-11-16T08:25:43.440Z,87.99
2022-11-16T08:28:14.644Z,87.88
2022-11-16T08:30:50.979Z,87.80
2022-11-16T08:33:24.753Z,87.66
2022-11-16T08:35:55.122Z,87.44
2022-11-16T08:38:26.069Z,87.32
2022-11-16T08:40:56.758Z,87.04
2022-11-16T08:43:29.393Z,87.14
2022-11-16T08:46:00.527Z,87.38
2022-11-16T08:48:32.054Z,87.10
2022-11-16T08:51:22.520Z,87.27
2022-11-16T08:53:58.121Z,87.33
2022-11-16T08:56:30.278Z,87.65
2022-11-16T08:59:01.572Z,87.73
2022-11-16T09:01:33.598Z,87.62
2022-11-16T09:04:04.794Z,87.47
2022-11-16T09:06:36.898Z,87.50
2022-11-16T09:09:08.120Z,87.54
2022-11-16T09:11:39.289Z,87.45
2022-11-16T09:14:08.676Z,87.43
2022-11-16T09:16:40.481Z,87.41
2022-11-16T09:19:11.980Z,87.51
2022-11-16T09:21:44.511Z,87.59
2022-11-16T09:24:15.496Z,87.58
2022-11-16T09:26:46.942Z,87.45
2022-11-16T09:29:16.965Z,87.06
2022-11-16T09:31:47.689Z,86.97
2022-11-16T09:34:18.621Z,87.06
2022-11-16T09:36:49.885Z,87.08
2022-11-16T09:39:36.323Z,87.17
2022-11-16T09:42:28.630Z,87.16
2022-11-16T09:45:07.786Z,87.23
2022-11-16T09:47:50.239Z,87.15
2022-11-16T09:50:33.298Z,86.94
2022-11-16T09:53:13.755Z,87.12
2022-11-16T09:55:51.392Z,86.90
2022-11-16T09:58:27.199Z,86.84
2022-11-16T10:01:01.547Z,86.98
2022-11-16T10:03:43.649Z,87.14
2022-11-16T10:06:23.292Z,86.94
2022-11-16T10:08:57.185Z,86.80
2022-11-16T10:11:42.557Z,86.90
2022-11-16T10:14:35.717Z,86.87
2022-11-16T10:17:13.275Z,86.59
2022-11-16T10:19:54.266Z,86.52
2022-11-16T10:22:40.022Z,86.55
2022-11-16T10:25:19.526Z,86.30
2022-11-16T10:28:02.197Z,86.40
2022-11-16T10:30:40.437Z,86.38
2022-11-16T10:33:17.036Z,86.62
2022-11-16T10:35:53.606Z,86.32
2022-11-16T10:38:26.211Z,86.19
2022-11-16T10:41:02.390Z,86.19
2022-11-16T10:43:35.280Z,86.17
2022-11-16T10:46:18.518Z,85.99
2022-11-16T10:49:00.067Z,85.90
2022-11-16T10:51:30.937Z,85.62
2022-11-16T10:54:02.107Z,85.55
2022-11-16T10:56:37.660Z,85.68
2022-11-16T10:59:10.962Z,85.40
2022-11-16T11:01:44.032Z,85.28
2022-11-16T11:04:22.099Z,85.11
2022-11-16T11:06:54.896Z,85.06
2022-11-16T11:09:32.305Z,84.93
2022-11-16T11:12:32.330Z,84.88
2022-11-16T11:15:06.906Z,84.92
2022-11-16T11:17:39.398Z,84.85
2022-11-16T11:20:24.999Z,85.04
2022-11-16T11:22:59.738Z,85.08
2022-11-16T11:25:34.267Z,85.11
2022-11-16T11:28:19.579Z,84.86
2022-11-16T11:30:58.748Z,84.94
2022-11-16T11:33:34.140Z,85.12
2022-11-16T11:36:09.631Z,85.29
2022-11-16T11:38:58.826Z,85.40
2022-11-16T11:41:35.311Z,85.58
2022-11-16T11:44:08.114Z,85.49
2022-11-16T11:49:42.293Z,85.24
2022-11-16T11:52:20.751Z,85.32
2022-11-16T11:54:56.076Z,85.49
2022-11-16T11:57:27.155Z,85.50
2022-11-16T11:59:58.275Z,85.45
2022-11-16T12:02:49.259Z,85.42
2022-11-16T12:05:42.038Z,85.59
2022-11-16T12:08:30.201Z,85.70
2022-11-16T12:11:08.648Z,85.63
2022-11-16T12:14:00.901Z,85.65
2022-11-16T12:16:40.300Z,85.76
2022-11-16T12:19:32.271Z,85.89
2022-11-16T12:22:13.897Z,85.73
2022-11-16T12:24:58.004Z,85.79
2022-11-16T12:27:41.305Z,85.63
2022-11-16T12:30:15.404Z,85.83
2022-11-16T12:33:13.294Z,85.78
2022-11-16T12:35:50.299Z,85.86
2022-11-16T12:38:53.838Z,86.12
2022-11-16T12:41:42.756Z,86.14
2022-11-16T12:44:20.660Z,86.07
2022-11-16T12:47:00.279Z,86.14
2022-11-16T12:50:07.111Z,86.24
2022-11-16T12:52:56.398Z,86.25
2022-11-16T12:55:37.372Z,86.23
2022-11-16T12:58:19.922Z,86.19
2022-11-16T13:01:03.723Z,86.26
2022-11-16T13:03:42.717Z,86.10
2022-11-16T13:06:18.918Z,86.09
2022-11-16T13:08:56.515Z,86.01
2022-11-16T13:11:28.347Z,86.16
2022-11-16T13:14:02.150Z,86.19
2022-11-16T13:16:33.717Z,86.05
2022-11-16T13:19:08.566Z,86.05
2022-11-16T13:21:47.158Z,86.06
2022-11-16T13:24:30.717Z,85.98
2022-11-16T13:27:16.286Z,85.80
2022-11-16T13:29:53.989Z,85.87
2022-11-16T13:32:34.880Z,85.94
2022-11-16T13:35:08.150Z,85.85
2022-11-16T13:37:47.795Z,85.91
2022-11-16T13:40:28.582Z,85.82
2022-11-16T13:43:06.687Z,85.81
2022-11-16T13:45:41.372Z,85.78
2022-11-16T13:48:21.263Z,85.70
2022-11-16T13:50:56.301Z,85.81
2022-11-16T13:56:28.932Z,85.71
2022-11-16T13:59:00.964Z,85.63
2022-11-16T14:01:59.618Z,85.55
2022-11-16T14:04:41.312Z,85.68
2022-11-16T14:07:35.945Z,85.63
2022-11-16T14:10:08.606Z,85.65
2022-11-16T14:12:59.676Z,85.74
2022-11-16T14:15:38.801Z,85.59
2022-11-16T14:18:37.010Z,85.47
2022-11-16T14:21:24.674Z,85.46
2022-11-16T14:24:08.309Z,85.44
2022-11-16T14:26:51.400Z,85.26
2022-11-16T14:29:49.190Z,85.20
2022-11-16T14:32:27.094Z,85.21
2022-11-16T14:35:00.520Z,85.37
2022-11-16T14:37:35.679Z,85.46
2022-11-16T14:40:15.247Z,85.50
2022-11-16T14:43:15.482Z,85.61
2022-11-16T14:45:53.332Z,85.53
2022-11-16T14:48:26.970Z,85.53
2022-11-16T14:51:09.553Z,85.51
2022-11-16T14:53:49.445Z,85.50
2022-11-16T14:56:21.541Z,85.51
2022-11-16T14:58:56.122Z,85.60
2022-11-16T15:01:31.313Z,85.49
2022-11-16T15:04:05.446Z,85.63
2022-11-16T15:06:42.358Z,85.66
2022-11-16T15:09:21.005Z,85.76
2022-11-16T15:12:11.212Z,85.65
2022-11-16T15:14:47.692Z,85.80
2022-11-16T15:17:22.306Z,85.83
2022-11-16T15:20:00.700Z,85.96
2022-11-16T15:22:33.361Z,86.02
2022-11-16T15:25:04.488Z,86.16
2022-11-16T15:27:40.315Z,86.11
2022-11-16T15:30:20.383Z,86.15
2022-11-16T15:32:53.491Z,86.15
2022-11-16T15:35:26.867Z,86.14
2022-11-16T15:38:15.022Z,86.26
2022-11-16T15:40:49.098Z,86.20
2022-11-16T15:43:22.592Z,86.28
2022-11-16T15:45:54.318Z,86.34
2022-11-16T15:48:26.793Z,86.46
2022-11-16T15:51:13.845Z,86.52
2022-11-16T15:53:46.616Z,86.58
2022-11-16T15:56:21.338Z,86.63
2022-11-16T15:58:53.600Z,86.68
2022-11-16T16:01:26.098Z,86.73
2022-11-16T16:04:03.071Z,86.64
2022-11-16T16:06:50.021Z,86.71
2022-11-16T16:09:32.224Z,86.77
2022-11-16T16:12:19.504Z,86.76
2022-11-16T16:14:51.271Z,86.68
2022-11-16T16:17:27.123Z,86.78
2022-11-16T16:20:00.031Z,86.76
2022-11-16T16:22:33.160Z,86.84
2022-11-16T16:25:05.082Z,86.93
2022-11-16T16:27:41.720Z,86.99
2022-11-16T16:30:18.338Z,87.03
2022-11-16T16:32:51.771Z,87.14
2022-11-16T16:35:24.848Z,87.24
2022-11-16T16:38:00.904Z,87.30
2022-11-16T16:40:32.306Z,87.29
2022-11-16T16:43:03.393Z,87.40
2022-11-16T16:45:36.145Z,87.40
2022-11-16T16:48:08.286Z,87.48
2022-11-16T16:50:39.798Z,87.53
2022-11-16T16:53:13.447Z,87.59
2022-11-16T16:55:46.180Z,87.70
2022-11-16T16:58:17.366Z,87.67
2022-11-16T17:00:49.090Z,87.70
2022-11-16T17:03:20.078Z,87.81
2022-11-16T17:05:53.313Z,87.87
2022-11-16T17:08:24.223Z,87.91
2022-11-16T17:10:55.166Z,87.84
2022-11-16T17:13:24.654Z,88.05
2022-11-16T17:15:55.387Z,88.07
2022-11-16T17:18:26.211Z,88.16
2022-11-16T17:20:57.080Z,88.07
2022-11-16T17:23:29.600Z,88.20
2022-11-16T17:26:00.640Z,88.28
2022-11-16T17:28:31.574Z,88.22
2022-11-16T17:31:03.425Z,88.16
2022-11-16T17:33:37.519Z,87.98
2022-11-16T17:36:12.455Z,87.87
2022-11-16T17:38:43.498Z,87.71
2022-11-16T17:41:14.280Z,87.70
2022-11-16T17:43:48.082Z,87.71
2022-11-16T17:46:21.281Z,87.69
2022-11-16T17:48:53.025Z,87.54
2022-11-16T17:51:26.589Z,87.61
2022-11-16T17:53:57.621Z,87.65
2022-11-16T17:56:29.814Z,87.81
2022-11-16T17:59:01.055Z,87.89
2022-11-16T18:01:32.320Z,88.07
2022-11-16T18:04:04.721Z,88.14
2022-11-16T18:06:35.801Z,88.13
2022-11-16T18:09:05.455Z,88.26
2022-11-16T18:11:36.553Z,88.19
2022-11-16T18:14:07.535Z,88.08
2022-11-16T18:16:41.196Z,88.19
2022-11-16T18:19:16.131Z,88.17
2022-11-16T18:21:48.326Z,88.29
2022-11-16T18:24:19.273Z,88.56
2022-11-16T18:26:50.223Z,88.68
2022-11-16T18:29:22.347Z,88.76
2022-11-16T18:31:53.896Z,88.80
2022-11-16T18:34:24.784Z,88.70
2022-11-16T18:36:56.286Z,88.72
2022-11-16T18:39:27.317Z,88.88
2022-11-16T18:41:58.815Z,88.99
2022-11-16T18:44:29.929Z,89.09
2022-11-16T18:47:02.710Z,88.90
2022-11-16T18:49:33.719Z,88.94
2022-11-16T18:52:04.895Z,88.89
2022-11-16T18:54:36.155Z,89.04
2022-11-16T18:57:07.485Z,88.93
2022-11-16T18:59:38.795Z,88.98
2022-11-16T19:02:11.746Z,88.88
2022-11-16T19:04:42.869Z,88.87
2022-11-16T19:07:14.180Z,88.73
2022-11-16T19:09:45.244Z,88.75
2022-11-16T19:12:16.138Z,88.85
2022-11-16T19:14:47.252Z,88.78
2022-11-16T19:17:18.755Z,88.96
2022-11-16T19:19:49.818Z,88.86
2022-11-16T19:22:20.944Z,88.77
2022-11-16T19:24:50.381Z,88.63
2022-11-16T19:27:21.483Z,88.37
2022-11-16T19:29:52.567Z,88.12
2022-11-16T19:32:22.058Z,88.23
2022-11-16T19:34:53.109Z,88.42
2022-11-16T19:37:24.279Z,88.52
2022-11-16T19:39:55.292Z,88.44
2022-11-16T19:42:27.031Z,88.43
2022-11-16T19:44:58.509Z,88.31
2022-11-16T19:47:30.610Z,88.19
2022-11-16T19:50:01.786Z,88.35
2022-11-16T19:52:31.547Z,88.20
2022-11-16T19:55:02.496Z,88.58
2022-11-16T19:57:33.587Z,88.62
2022-11-16T20:00:05.215Z,88.68
2022-11-16T20:02:36.670Z,88.69
2022-11-16T20:05:09.643Z,88.75
2022-11-16T20:07:40.665Z,88.85
2022-11-16T20:10:10.862Z,88.96
2022-11-16T20:12:41.627Z,88.91
2022-11-16T20:15:14.943Z,88.89
2022-11-16T20:17:46.098Z,88.81
2022-11-16T20:20:17.379Z,88.82
2022-11-16T20:22:48.137Z,88.72
2022-11-16T20:25:19.377Z,88.85
2022-11-16T20:27:50.306Z,88.95
2022-11-16T20:30:19.831Z,89.07
2022-11-16T20:32:50.800Z,88.91
2022-11-16T20:35:21.606Z,88.86
2022-11-16T20:37:52.537Z,88.80
2022-11-16T20:40:23.785Z,88.78
2022-11-16T20:42:59.234Z,88.84
2022-11-16T20:45:33.255Z,88.96
2022-11-16T20:48:04.488Z,89.04
2022-11-16T20:50:34.197Z,89.08
2022-11-16T20:53:05.278Z,89.09
2022-11-16T20:55:36.486Z,89.08
2022-11-16T20:58:07.426Z,89.06
2022-11-16T21:00:38.262Z,89.04
2022-11-16T21:03:09.473Z,89.10
2022-11-16T21:05:45.567Z,89.29
2022-11-16T21:08:16.715Z,89.42
2022-11-16T21:10:48.866Z,89.40
2022-11-16T21:13:39.100Z,89.22
2022-11-16T21:16:12.350Z,89.18
2022-11-16T21:18:43.700Z,89.11
2022-11-16T21:21:13.711Z,89.33
2022-11-16T21:23:51.580Z,89.27
2022-11-16T21:26:24.838Z,89.24
2022-11-16T21:28:55.700Z,89.26
2022-11-16T21:31:29.916Z,89.22
2022-11-16T21:34:01.804Z,89.21
2022-11-16T21:36:34.014Z,89.25
2022-11-16T21:39:05.771Z,89.27
2022-11-16T21:41:37.069Z,89.35
2022-11-16T21:44:08.156Z,89.26
2022-11-16T21:46:39.217Z,89.36
2022-11-16T21:49:10.221Z,89.37
2022-11-16T21:51:41.143Z,89.36
2022-11-16T21:54:12.307Z,89.48
2022-11-16T21:56:43.558Z,89.46
2022-11-16T21:59:15.118Z,89.34
2022-11-16T22:01:59.842Z,89.46
2022-11-16T22:04:48.223Z,89.40
2022-11-16T22:07:36.843Z,89.40
2022-11-16T22:10:10.885Z,89.23
2022-11-16T22:12:41.966Z,89.22
2022-11-16T22:15:13.566Z,89.17
2022-11-16T22:17:46.398Z,89.28
2022-11-16T22:20:17.836Z,89.37
2022-11-16T22:22:49.142Z,89.28
2022-11-16T22:25:20.643Z,89.34
2022-11-16T22:28:19.319Z,89.39
2022-11-16T22:30:47.427Z,89.27
2022-11-16T22:33:22.179Z,89.30
2022-11-16T22:35:53.316Z,89.41
2022-11-16T22:38:24.551Z,89.20
2022-11-16T22:40:54.528Z,89.20
2022-11-16T22:43:27.051Z,89.33
2022-11-16T22:46:00.990Z,89.47
2022-11-16T22:48:37.042Z,89.37
2022-11-16T22:51:19.952Z,89.43
2022-11-16T22:53:55.162Z,89.40
2022-11-16T22:56:26.774Z,89.32
2022-11-16T22:58:57.674Z,89.10
2022-11-16T23:01:27.201Z,89.24
2022-11-16T23:03:57.970Z,89.30
2022-11-16T23:06:29.192Z,89.22
2022-11-16T23:09:00.714Z,89.31
2022-11-16T23:11:49.524Z,89.04
2022-11-16T23:14:37.934Z,89.07
2022-11-16T23:17:09.225Z,88.98
2022-11-16T23:19:56.590Z,89.01
2022-11-16T23:22:44.919Z,89.24
2022-11-16T23:25:33.459Z,89.13
2022-11-16T23:28:07.871Z,88.81
2022-11-16T23:30:39.982Z,88.98
2022-11-16T23:33:12.077Z,88.94
2022-11-16T23:35:43.504Z,88.43
2022-11-16T23:38:14.505Z,88.43
2022-11-16T23:40:45.511Z,88.47
2022-11-16T23:43:33.117Z,88.39
2022-11-16T23:46:04.421Z,88.43
2022-11-16T23:48:35.257Z,88.37
2022-11-16T23:51:06.361Z,88.09
2022-11-16T23:53:37.851Z,88.07
2022-11-16T23:56:10.233Z,87.93
2022-11-16T23:58:41.033Z,87.71
